createdAt,value
2023-05-06T00:01:08.899Z,8.17
2023-05-06T00:03:35.198Z,8.60
2023-05-06T00:06:04.675Z,7.20
2023-05-06T00:08:30.885Z,7.17
2023-05-06T00:10:57.069Z,8.03
2023-05-06T00:13:23.260Z,8.23
2023-05-06T00:15:49.385Z,7.27
2023-05-06T00:18:15.704Z,7.33
2023-05-06T00:20:42.667Z,6.80
2023-05-06T00:23:08.847Z,7.20
2023-05-06T00:25:35.204Z,7.20
2023-05-06T00:28:01.320Z,6.70
2023-05-06T00:30:27.581Z,7.07
2023-05-06T00:32:54.066Z,7.53
2023-05-06T00:35:20.305Z,7.97
2023-05-06T00:37:56.401Z,8.50
2023-05-06T00:40:22.967Z,8.40
2023-05-06T00:42:49.130Z,8.40
2023-05-06T00:45:15.312Z,8.23
2023-05-06T00:47:42.449Z,8.40
2023-05-06T00:50:08.945Z,7.73
2023-05-06T00:52:35.409Z,7.47
2023-05-06T00:55:01.947Z,8.80
2023-05-06T00:57:28.112Z,8.07
2023-05-06T00:59:54.506Z,8.23
2023-05-06T01:02:20.998Z,8.83
2023-05-06T01:04:47.346Z,8.80
2023-05-06T01:07:40.015Z,7.97
2023-05-06T01:10:52.558Z,7.70
2023-05-06T01:13:33.516Z,7.37
2023-05-06T01:16:01.387Z,7.47
2023-05-06T01:18:32.002Z,8.77
2023-05-06T01:20:59.524Z,8.73
2023-05-06T01:23:26.582Z,9.73
2023-05-06T01:25:53.013Z,9.70
2023-05-06T01:28:19.160Z,8.67
2023-05-06T01:31:01.123Z,9.80
2023-05-06T01:33:45.289Z,8.73
2023-05-06T01:36:28.571Z,7.47
2023-05-06T01:39:11.899Z,9.33
2023-05-06T01:41:41.186Z,9.87
2023-05-06T01:44:11.228Z,9.37
2023-05-06T01:46:37.505Z,8.63
2023-05-06T01:49:07.664Z,10.70
2023-05-06T01:51:34.181Z,10.20
2023-05-06T01:54:01.955Z,9.73
2023-05-06T01:56:29.559Z,8.43
2023-05-06T01:58:59.280Z,8.67
2023-05-06T02:01:25.894Z,8.10
2023-05-06T02:03:52.391Z,7.47
2023-05-06T02:06:19.170Z,8.30
2023-05-06T02:08:46.021Z,7.10
2023-05-06T02:11:18.161Z,7.83
2023-05-06T02:13:45.329Z,8.00
2023-05-06T02:16:12.149Z,7.43
2023-05-06T02:18:38.664Z,7.00
2023-05-06T02:21:04.864Z,7.47
2023-05-06T02:23:31.060Z,7.70
2023-05-06T02:25:58.233Z,7.30
2023-05-06T02:28:25.055Z,8.20
2023-05-06T02:30:55.956Z,6.60
2023-05-06T02:33:22.975Z,7.63
2023-05-06T02:35:50.181Z,7.50
2023-05-06T02:38:17.229Z,6.47
2023-05-06T02:40:43.447Z,7.13
2023-05-06T02:43:09.627Z,7.97
2023-05-06T02:45:35.889Z,7.47
2023-05-06T02:48:02.134Z,6.37
2023-05-06T02:50:28.838Z,7.23
2023-05-06T02:52:55.039Z,6.30
2023-05-06T02:55:21.489Z,7.17
2023-05-06T02:57:47.650Z,6.80
2023-05-06T03:00:15.026Z,5.70
2023-05-06T03:02:41.872Z,6.40
2023-05-06T03:05:09.234Z,6.33
2023-05-06T03:07:36.383Z,5.67
2023-05-06T03:10:04.313Z,5.63
2023-05-06T03:12:33.911Z,5.77
2023-05-06T03:15:00.240Z,5.20
2023-05-06T03:17:26.853Z,5.23
2023-05-06T03:19:53.151Z,6.33
2023-05-06T03:22:20.719Z,5.57
2023-05-06T03:24:46.967Z,5.27
2023-05-06T03:27:13.168Z,6.00
2023-05-06T03:29:40.971Z,6.30
2023-05-06T03:32:08.636Z,7.47
2023-05-06T03:34:40.714Z,6.63
2023-05-06T03:37:09.810Z,5.47
2023-05-06T03:39:36.906Z,5.80
2023-05-06T03:42:04.095Z,4.73
2023-05-06T03:44:30.329Z,5.80
2023-05-06T03:46:57.131Z,5.10
2023-05-06T03:49:23.626Z,5.47
2023-05-06T03:51:49.910Z,6.60
2023-05-06T03:54:18.013Z,6.13
2023-05-06T03:56:44.587Z,5.33
2023-05-06T03:59:11.721Z,5.50
2023-05-06T04:01:37.905Z,4.67
2023-05-06T04:04:04.430Z,5.73
2023-05-06T04:06:30.977Z,4.07
2023-05-06T04:08:57.260Z,5.50
2023-05-06T04:11:24.408Z,4.60
2023-05-06T04:13:51.107Z,4.17
2023-05-06T04:16:19.907Z,5.07
2023-05-06T04:18:47.026Z,4.70
2023-05-06T04:21:15.312Z,3.97
2023-05-06T04:23:47.182Z,3.80
2023-05-06T04:26:18.059Z,4.13
2023-05-06T04:28:45.891Z,4.97
2023-05-06T04:31:13.781Z,4.07
2023-05-06T04:33:44.277Z,4.53
2023-05-06T04:36:14.974Z,4.77
2023-05-06T04:38:52.959Z,5.60
2023-05-06T04:41:19.837Z,5.93
2023-05-06T04:43:46.404Z,6.00
2023-05-06T04:46:18.349Z,6.83
2023-05-06T04:48:46.720Z,5.20
2023-05-06T04:51:14.405Z,6.60
2023-05-06T04:53:41.014Z,6.50
2023-05-06T04:56:08.164Z,6.03
2023-05-06T04:58:35.510Z,6.03
2023-05-06T05:01:07.870Z,5.93
2023-05-06T05:03:34.560Z,5.27
2023-05-06T05:06:02.740Z,6.87
2023-05-06T05:08:28.974Z,6.27
2023-05-06T05:10:55.552Z,6.27
2023-05-06T05:13:24.286Z,6.00
2023-05-06T05:15:55.090Z,5.73
2023-05-06T05:18:23.763Z,5.70
2023-05-06T05:20:53.235Z,5.67
2023-05-06T05:23:20.486Z,5.80
2023-05-06T05:25:47.451Z,6.70
2023-05-06T05:28:13.642Z,6.20
2023-05-06T05:30:41.185Z,5.47
2023-05-06T05:33:08.825Z,6.17
2023-05-06T05:35:35.249Z,4.83
2023-05-06T05:38:02.352Z,4.90
2023-05-06T05:40:28.601Z,5.20
2023-05-06T05:42:55.860Z,4.93
2023-05-06T05:45:28.962Z,5.03
2023-05-06T05:47:55.852Z,4.90
2023-05-06T05:50:23.116Z,4.97
2023-05-06T05:52:50.620Z,3.67
2023-05-06T05:55:17.563Z,5.20
2023-05-06T05:57:46.075Z,5.27
2023-05-06T06:00:13.839Z,4.07
2023-05-06T06:02:46.260Z,5.03
2023-05-06T06:05:16.757Z,5.03
2023-05-06T06:07:42.968Z,4.70
2023-05-06T06:10:13.518Z,4.97
2023-05-06T06:12:40.944Z,5.37
2023-05-06T06:15:09.158Z,3.97
2023-05-06T06:17:36.157Z,4.90
2023-05-06T06:20:04.323Z,4.23
2023-05-06T06:22:30.599Z,4.43
2023-05-06T06:24:56.896Z,4.60
2023-05-06T06:27:23.097Z,4.67
2023-05-06T06:29:49.652Z,4.67
2023-05-06T06:32:16.412Z,4.03
2023-05-06T06:34:42.589Z,4.67
2023-05-06T06:37:10.893Z,4.33
2023-05-06T06:39:37.424Z,4.60
2023-05-06T06:42:04.401Z,4.50
2023-05-06T06:44:37.038Z,4.67
2023-05-06T06:47:03.249Z,5.67
2023-05-06T06:49:30.787Z,5.30
2023-05-06T06:51:57.039Z,4.87
2023-05-06T06:54:23.756Z,4.93
2023-05-06T06:56:55.168Z,5.37
2023-05-06T06:59:21.837Z,4.50
2023-05-06T07:01:48.047Z,5.27
2023-05-06T07:04:14.541Z,5.80
2023-05-06T07:06:40.751Z,5.00
2023-05-06T07:09:08.081Z,4.60
2023-05-06T07:11:34.254Z,5.30
2023-05-06T07:14:00.407Z,4.90
2023-05-06T07:16:26.591Z,5.63
2023-05-06T07:18:53.379Z,5.50
2023-05-06T07:21:19.828Z,6.13
2023-05-06T07:23:46.003Z,5.77
2023-05-06T07:26:12.421Z,6.80
2023-05-06T07:28:38.571Z,7.20
2023-05-06T07:31:04.935Z,5.53
2023-05-06T07:33:31.226Z,5.63
2023-05-06T07:35:57.450Z,5.93
2023-05-06T07:38:23.833Z,6.07
2023-05-06T07:40:51.003Z,6.53
2023-05-06T07:43:17.165Z,5.80
2023-05-06T07:45:43.425Z,6.13
2023-05-06T07:48:09.745Z,6.07
2023-05-06T07:50:36.211Z,6.10
2023-05-06T07:53:03.196Z,5.73
2023-05-06T07:55:29.736Z,5.60
2023-05-06T07:57:55.920Z,5.37
2023-05-06T08:00:22.302Z,5.50
2023-05-06T08:02:48.658Z,5.77
2023-05-06T08:05:15.085Z,5.20
2023-05-06T08:07:41.767Z,5.80
2023-05-06T08:10:12.756Z,5.43
2023-05-06T08:12:38.953Z,5.03
2023-05-06T08:15:06.233Z,5.23
2023-05-06T08:17:32.458Z,4.40
2023-05-06T08:19:58.679Z,4.10
2023-05-06T08:22:24.997Z,4.00
2023-05-06T08:24:51.203Z,4.00
2023-05-06T08:27:17.431Z,3.50
2023-05-06T08:29:43.947Z,3.70
2023-05-06T08:32:10.247Z,3.13
2023-05-06T08:34:36.827Z,2.87
2023-05-06T08:37:03.060Z,4.03
2023-05-06T08:39:30.102Z,4.00
2023-05-06T08:41:59.990Z,3.57
2023-05-06T08:44:26.677Z,3.07
2023-05-06T08:46:53.407Z,3.67
2023-05-06T08:49:20.305Z,3.33
2023-05-06T08:51:51.560Z,3.13
2023-05-06T08:54:18.028Z,2.63
2023-05-06T08:56:53.906Z,2.50
2023-05-06T08:59:25.145Z,2.10
2023-05-06T09:01:52.644Z,2.23
2023-05-06T09:04:19.254Z,2.60
2023-05-06T09:06:45.969Z,1.73
2023-05-06T09:09:14.137Z,1.67
2023-05-06T09:11:40.434Z,1.60
2023-05-06T09:14:15.959Z,1.33
2023-05-06T09:16:48.789Z,1.70
2023-05-06T09:19:16.991Z,1.43
2023-05-06T09:21:46.925Z,1.30
2023-05-06T09:24:15.937Z,1.40
2023-05-06T09:26:45.859Z,1.70
2023-05-06T09:29:13.433Z,1.50
2023-05-06T09:31:43.146Z,1.20
2023-05-06T09:34:10.355Z,1.17
2023-05-06T09:36:37.016Z,0.90
2023-05-06T09:39:04.412Z,0.70
2023-05-06T09:41:31.340Z,0.80
2023-05-06T09:43:58.429Z,0.87
2023-05-06T09:46:27.214Z,0.90
2023-05-06T09:48:56.429Z,0.80
2023-05-06T09:51:23.121Z,0.95
2023-05-06T09:53:50.673Z,0.98
2023-05-06T09:56:17.055Z,0.88
2023-05-06T09:58:44.980Z,0.85
2023-05-06T10:01:15.137Z,0.70
2023-05-06T10:03:47.181Z,0.68
2023-05-06T10:06:15.300Z,0.82
2023-05-06T10:08:44.459Z,0.88
2023-05-06T10:11:11.443Z,0.90
2023-05-06T10:13:39.908Z,0.90
2023-05-06T10:16:07.301Z,0.80
2023-05-06T10:18:37.904Z,0.70
2023-05-06T10:21:13.207Z,0.70
2023-05-06T10:23:56.466Z,0.70
2023-05-06T10:26:26.390Z,0.80
2023-05-06T10:28:53.027Z,0.80
2023-05-06T10:31:19.221Z,0.80
2023-05-06T10:33:50.524Z,1.00
2023-05-06T10:36:25.189Z,0.90
2023-05-06T10:38:59.591Z,0.70
2023-05-06T10:41:27.747Z,0.90
2023-05-06T10:43:59.217Z,0.80
2023-05-06T10:46:29.488Z,0.90
2023-05-06T10:49:10.450Z,0.70
2023-05-06T10:51:41.374Z,0.80
2023-05-06T10:54:08.986Z,0.90
2023-05-06T10:57:09.118Z,1.00
2023-05-06T10:59:35.442Z,0.90
2023-05-06T11:02:04.952Z,1.00
2023-05-06T11:04:31.429Z,0.70
2023-05-06T11:07:12.846Z,1.00
2023-05-06T11:10:05.375Z,0.80
2023-05-06T11:12:48.916Z,0.73
2023-05-06T11:15:20.793Z,0.70
2023-05-06T11:17:47.076Z,0.80
2023-05-06T11:20:24.901Z,0.73
2023-05-06T11:22:52.657Z,0.80
2023-05-06T11:25:38.412Z,0.88
2023-05-06T11:28:13.035Z,0.80
2023-05-06T11:30:42.564Z,0.70
2023-05-06T11:33:18.672Z,0.73
2023-05-06T11:35:45.032Z,0.70
2023-05-06T11:38:11.825Z,0.60
2023-05-06T11:40:40.772Z,0.63
2023-05-06T11:43:14.765Z,0.70
2023-05-06T11:45:45.880Z,0.90
2023-05-06T11:48:21.111Z,0.70
2023-05-06T11:50:48.737Z,0.80
2023-05-06T11:53:18.691Z,0.82
2023-05-06T11:55:47.158Z,0.60
2023-05-06T11:58:22.985Z,0.70
2023-05-06T12:01:01.600Z,0.70
2023-05-06T12:03:30.650Z,0.70
2023-05-06T12:05:58.006Z,0.70
2023-05-06T12:08:32.924Z,0.60
2023-05-06T12:11:07.357Z,0.60
2023-05-06T12:13:35.881Z,0.80
2023-05-06T12:16:03.584Z,0.70
2023-05-06T12:18:30.177Z,0.70
2023-05-06T12:20:57.077Z,0.73
2023-05-06T12:23:23.439Z,0.60
2023-05-06T12:26:05.538Z,0.70
2023-05-06T12:28:34.678Z,0.60
2023-05-06T12:31:17.337Z,0.60
2023-05-06T12:33:45.693Z,0.60
2023-05-06T12:36:11.857Z,1.70
2023-05-06T12:38:38.058Z,0.70
2023-05-06T12:41:06.242Z,0.65
2023-05-06T12:43:32.566Z,0.70
2023-05-06T12:46:04.605Z,0.60
2023-05-06T12:48:30.939Z,0.80
2023-05-06T12:50:57.215Z,0.93
2023-05-06T12:53:34.641Z,0.70
2023-05-06T12:56:00.905Z,0.70
2023-05-06T12:58:27.113Z,0.80
2023-05-06T13:00:53.302Z,0.60
2023-05-06T13:03:19.744Z,0.55
2023-05-06T13:05:49.265Z,0.60
2023-05-06T13:08:15.415Z,0.50
2023-05-06T13:10:41.856Z,0.90
2023-05-06T13:13:08.352Z,0.55
2023-05-06T13:15:35.063Z,0.65
2023-05-06T13:18:01.313Z,0.70
2023-05-06T13:20:27.532Z,0.70
2023-05-06T13:22:55.051Z,0.60
2023-05-06T13:25:21.718Z,0.60
2023-05-06T13:27:47.873Z,0.70
2023-05-06T13:30:14.504Z,0.57
2023-05-06T13:32:41.152Z,0.70
2023-05-06T13:35:08.253Z,0.60
2023-05-06T13:37:34.644Z,0.60
2023-05-06T13:40:00.840Z,0.70
2023-05-06T13:42:27.153Z,0.80
2023-05-06T13:44:53.312Z,0.80
2023-05-06T13:47:19.712Z,0.60
2023-05-06T13:49:45.948Z,0.70
2023-05-06T13:52:12.190Z,0.63
2023-05-06T13:54:38.390Z,0.60
2023-05-06T13:57:07.462Z,0.80
2023-05-06T13:59:33.668Z,0.90
2023-05-06T14:02:00.500Z,0.68
2023-05-06T14:04:26.797Z,0.50
2023-05-06T14:06:58.457Z,0.63
2023-05-06T14:09:27.334Z,0.70
2023-05-06T14:11:53.522Z,0.70
2023-05-06T14:14:19.662Z,0.70
2023-05-06T14:16:45.916Z,0.50
2023-05-06T14:19:12.396Z,0.60
2023-05-06T14:21:38.570Z,0.70
2023-05-06T14:24:07.362Z,0.70
2023-05-06T14:26:34.141Z,0.90
2023-05-06T14:29:00.411Z,0.60
2023-05-06T14:31:27.115Z,0.60
2023-05-06T14:33:53.611Z,0.60
2023-05-06T14:36:19.918Z,0.75
2023-05-06T14:38:46.137Z,0.70
2023-05-06T14:41:12.350Z,0.60
2023-05-06T14:43:38.542Z,0.70
2023-05-06T14:46:04.927Z,0.70
2023-05-06T14:48:31.257Z,0.90
2023-05-06T14:50:57.543Z,0.65
2023-05-06T14:53:23.726Z,0.70
2023-05-06T14:55:50.198Z,0.68
2023-05-06T14:58:17.019Z,0.70
2023-05-06T15:00:44.517Z,0.50
2023-05-06T15:03:10.696Z,0.60
2023-05-06T15:05:36.918Z,0.70
2023-05-06T15:08:03.153Z,0.70
2023-05-06T15:10:29.411Z,0.70
2023-05-06T15:12:55.970Z,0.60
2023-05-06T15:15:22.182Z,0.65
2023-05-06T15:17:48.498Z,0.50
2023-05-06T15:20:15.537Z,0.65
2023-05-06T15:22:42.023Z,0.80
2023-05-06T15:25:12.406Z,0.70
2023-05-06T15:27:42.980Z,0.90
2023-05-06T15:30:09.632Z,0.70
2023-05-06T15:32:35.813Z,0.70
2023-05-06T15:35:04.107Z,0.77
2023-05-06T15:37:33.501Z,0.80
2023-05-06T15:40:00.365Z,0.70
2023-05-06T15:42:26.805Z,0.80
2023-05-06T15:44:54.306Z,1.10
2023-05-06T15:47:20.528Z,1.57
2023-05-06T15:49:52.732Z,1.40
2023-05-06T15:52:21.825Z,1.13
2023-05-06T15:54:49.914Z,1.53
2023-05-06T15:57:17.016Z,4.47
2023-05-06T15:59:43.172Z,1.57
2023-05-06T16:02:25.512Z,6.77
2023-05-06T16:04:53.167Z,3.90
2023-05-06T16:07:19.488Z,2.30
2023-05-06T16:09:45.777Z,1.20
2023-05-06T16:12:13.893Z,1.10
2023-05-06T16:14:40.188Z,1.13
2023-05-06T16:17:06.377Z,1.20
2023-05-06T16:19:34.271Z,1.30
2023-05-06T16:22:01.402Z,1.23
2023-05-06T16:24:27.605Z,1.10
2023-05-06T16:26:55.242Z,1.00
2023-05-06T16:29:21.750Z,1.10
2023-05-06T16:31:48.705Z,1.93
2023-05-06T16:34:15.143Z,1.13
2023-05-06T16:36:41.416Z,1.07
2023-05-06T16:39:07.880Z,1.93
2023-05-06T16:41:34.174Z,1.30
2023-05-06T16:44:00.900Z,1.33
2023-05-06T16:46:28.356Z,1.10
2023-05-06T16:48:55.364Z,1.20
2023-05-06T16:51:21.640Z,0.90
2023-05-06T16:53:47.952Z,0.90
2023-05-06T16:56:14.130Z,0.90
2023-05-06T16:58:41.703Z,2.00
2023-05-06T17:01:08.115Z,1.30
2023-05-06T17:03:37.030Z,1.30
2023-05-06T17:06:03.579Z,1.30
2023-05-06T17:10:59.964Z,1.13
2023-05-06T17:13:26.139Z,1.50
2023-05-06T17:15:52.340Z,1.63
2023-05-06T17:18:18.597Z,2.03
2023-05-06T17:20:55.085Z,1.60
2023-05-06T17:23:23.186Z,1.13
2023-05-06T17:25:50.664Z,1.10
2023-05-06T17:28:18.493Z,1.00
2023-05-06T17:30:45.826Z,0.80
2023-05-06T17:33:12.092Z,1.17
2023-05-06T17:35:38.303Z,0.97
2023-05-06T17:38:04.656Z,1.03
2023-05-06T17:40:31.234Z,1.33
2023-05-06T17:42:57.617Z,1.00
2023-05-06T17:45:24.594Z,1.20
2023-05-06T17:47:50.921Z,1.07
2023-05-06T17:50:17.213Z,0.90
2023-05-06T17:52:43.653Z,1.10
2023-05-06T17:55:16.421Z,1.07
2023-05-06T17:57:43.462Z,0.97
2023-05-06T18:00:10.633Z,1.20
2023-05-06T18:02:40.831Z,0.90
2023-05-06T18:05:07.888Z,1.10
2023-05-06T18:07:37.431Z,1.00
2023-05-06T18:10:04.167Z,1.17
2023-05-06T18:12:31.177Z,1.10
2023-05-06T18:14:57.738Z,1.30
2023-05-06T18:17:24.075Z,1.13
2023-05-06T18:19:50.432Z,1.37
2023-05-06T18:22:16.617Z,1.00
2023-05-06T18:24:42.805Z,1.10
2023-05-06T18:27:09.359Z,1.20
2023-05-06T18:29:35.548Z,1.00
2023-05-06T18:32:02.233Z,1.27
2023-05-06T18:34:28.458Z,1.17
2023-05-06T18:36:54.696Z,1.10
2023-05-06T18:39:25.220Z,1.20
2023-05-06T18:41:51.727Z,1.23
2023-05-06T18:44:18.004Z,1.20
2023-05-06T18:46:44.199Z,1.10
2023-05-06T18:49:13.268Z,1.00
2023-05-06T18:51:39.767Z,1.03
2023-05-06T18:54:06.352Z,1.20
2023-05-06T18:56:33.019Z,1.10
2023-05-06T18:58:59.371Z,1.13
2023-05-06T19:01:26.074Z,1.00
2023-05-06T19:03:52.425Z,1.03
2023-05-06T19:06:18.583Z,1.10
2023-05-06T19:08:44.819Z,0.80
2023-05-06T19:11:18.294Z,1.03
2023-05-06T19:13:45.365Z,1.00
2023-05-06T19:16:12.590Z,1.00
2023-05-06T19:18:38.855Z,1.27
2023-05-06T19:21:05.053Z,1.40
2023-05-06T19:23:32.105Z,1.10
2023-05-06T19:25:58.272Z,1.17
2023-05-06T19:28:24.433Z,1.30
2023-05-06T19:30:50.639Z,1.20
2023-05-06T19:33:18.089Z,1.10
2023-05-06T19:35:44.245Z,1.13
2023-05-06T19:38:10.498Z,1.37
2023-05-06T19:40:36.880Z,1.50
2023-05-06T19:43:03.443Z,1.50
2023-05-06T19:45:32.062Z,1.73
2023-05-06T19:48:03.382Z,1.47
2023-05-06T19:50:32.590Z,1.60
2023-05-06T19:52:58.981Z,1.67
2023-05-06T19:55:25.316Z,1.40
2023-05-06T19:57:56.192Z,1.50
2023-05-06T20:00:24.612Z,1.53
2023-05-06T20:02:50.812Z,1.37
2023-05-06T20:05:17.328Z,1.07
2023-05-06T20:07:43.775Z,1.47
2023-05-06T20:10:12.712Z,1.40
2023-05-06T20:12:40.309Z,1.47
2023-05-06T20:15:08.675Z,1.23
2023-05-06T20:17:35.322Z,1.50
2023-05-06T20:20:08.351Z,1.57
2023-05-06T20:22:39.676Z,1.80
2023-05-06T20:25:17.833Z,1.67
2023-05-06T20:27:45.561Z,1.50
2023-05-06T20:30:12.288Z,1.80
2023-05-06T20:32:39.994Z,1.40
2023-05-06T20:35:06.895Z,1.20
2023-05-06T20:37:34.531Z,1.33
2023-05-06T20:40:01.365Z,1.03
2023-05-06T20:42:27.776Z,1.23
2023-05-06T20:44:54.257Z,1.13
2023-05-06T20:47:20.545Z,1.23
2023-05-06T20:49:46.763Z,1.40
2023-05-06T20:52:15.947Z,1.20
2023-05-06T20:54:43.519Z,1.43
2023-05-06T20:57:10.996Z,1.30
2023-05-06T20:59:37.339Z,1.30
2023-05-06T21:02:04.270Z,1.37
2023-05-06T21:04:30.839Z,1.20
2023-05-06T21:06:57.244Z,1.50
2023-05-06T21:09:25.971Z,1.30
2023-05-06T21:11:52.236Z,1.60
2023-05-06T21:14:18.551Z,1.50
2023-05-06T21:16:45.057Z,1.37
2023-05-06T21:19:11.863Z,1.50
2023-05-06T21:21:38.159Z,1.40
2023-05-06T21:24:04.836Z,1.47
2023-05-06T21:26:32.543Z,1.73
2023-05-06T21:28:58.725Z,1.50
2023-05-06T21:31:26.116Z,1.60
2023-05-06T21:33:57.912Z,1.50
2023-05-06T21:36:24.561Z,1.87
2023-05-06T21:39:09.547Z,2.00
2023-05-06T21:41:36.106Z,1.80
2023-05-06T21:44:04.397Z,1.83
2023-05-06T21:46:31.960Z,1.63
2023-05-06T21:48:59.097Z,1.70
2023-05-06T21:51:27.757Z,1.50
2023-05-06T21:53:53.930Z,1.60
2023-05-06T21:56:20.676Z,1.40
2023-05-06T21:58:46.853Z,1.40
2023-05-06T22:01:13.085Z,1.63
2023-05-06T22:03:39.406Z,1.60
2023-05-06T22:06:06.148Z,1.97
2023-05-06T22:08:32.623Z,1.87
2023-05-06T22:10:59.098Z,1.50
2023-05-06T22:13:25.917Z,1.67
2023-05-06T22:15:53.010Z,1.83
2023-05-06T22:18:19.698Z,1.80
2023-05-06T22:20:48.265Z,1.73
2023-05-06T22:23:14.842Z,1.50
2023-05-06T22:25:41.045Z,1.80
2023-05-06T22:28:07.244Z,1.63
2023-05-06T22:30:33.612Z,1.97
2023-05-06T22:33:00.053Z,1.87
2023-05-06T22:35:26.250Z,1.53
2023-05-06T22:37:52.867Z,1.80
2023-05-06T22:40:19.017Z,1.77
2023-05-06T22:42:45.663Z,2.00
2023-05-06T22:45:12.150Z,2.03
2023-05-06T22:47:38.639Z,2.00
2023-05-06T22:50:06.023Z,1.90
2023-05-06T22:52:32.306Z,2.17
2023-05-06T22:54:58.585Z,2.07
2023-05-06T22:57:24.883Z,2.20
2023-05-06T22:59:51.096Z,1.93
2023-05-06T23:02:17.254Z,1.90
2023-05-06T23:04:43.657Z,2.30
2023-05-06T23:07:10.114Z,2.07
2023-05-06T23:09:36.287Z,2.40
2023-05-06T23:12:02.633Z,2.40
2023-05-06T23:14:29.102Z,2.10
2023-05-06T23:16:55.909Z,2.00
2023-05-06T23:19:22.209Z,2.27
2023-05-06T23:21:48.374Z,2.13
2023-05-06T23:24:14.654Z,2.87
2023-05-06T23:26:40.817Z,2.13
2023-05-06T23:29:06.980Z,1.80
2023-05-06T23:31:33.450Z,2.10
2023-05-06T23:33:59.653Z,2.00
2023-05-06T23:36:26.508Z,2.40
2023-05-06T23:38:52.704Z,2.20
2023-05-06T23:41:18.866Z,2.67
2023-05-06T23:43:45.473Z,2.50
2023-05-06T23:46:11.968Z,2.20
2023-05-06T23:48:38.190Z,2.17
2023-05-06T23:51:04.558Z,2.43
2023-05-06T23:53:30.952Z,2.57
2023-05-06T23:55:57.190Z,2.20
2023-05-06T23:58:23.372Z,2.10
